Time;durP1;ratioP1;P1;durP2;ratioP2;P2;SDS_P1;SDS_P2;PMS_P1;PMS_P2;Temp;Humidity;BMP_temperature;BMP_pressure;BME280_temperature;BME280_humidity;BME280_pressure;Samples;Min_cycle;Max_cycle;Signal;HPM_P1;HPM_P2
2023/04/11 00:02:33;;;;;;;;;;;12.60;81.10;;;;;;4943361;28;19931;-63
2023/04/11 00:05:02;;;;;;;;;;;12.60;81.80;;;;;;4950029;28;20033;-63
2023/04/11 00:07:28;;;;;;;;;;;12.50;82.00;;;;;;4949511;28;20423;-63
2023/04/11 00:09:55;;;;;;;;;;;12.50;82.30;;;;;;4950445;28;19953;-64
2023/04/11 00:12:23;;;;;;;;;;;12.50;82.30;;;;;;4950070;28;20300;-63
2023/04/11 00:14:52;;;;;;;;;;;12.50;82.80;;;;;;4951277;28;19931;-63
2023/04/11 00:17:19;;;;;;;;;;;12.50;82.70;;;;;;4948828;28;20083;-63
2023/04/11 00:19:48;;;;;;;;;;;12.40;82.90;;;;;;4951678;28;19931;-65
2023/04/11 00:22:16;;;;;;;;;;;12.40;82.80;;;;;;4952469;28;19931;-63
2023/04/11 00:24:43;;;;;;;;;;;12.40;82.90;;;;;;4952311;28;19930;-64
2023/04/11 00:27:10;;;;;;;;;;;12.40;83.00;;;;;;4950025;28;19967;-64
2023/04/11 00:29:37;;;;;;;;;;;12.30;83.60;;;;;;4967174;28;20065;-63
2023/04/11 00:32:04;;;;;;;;;;;12.40;82.90;;;;;;4937154;28;19935;-61
2023/04/11 00:34:31;;;;;;;;;;;12.40;83.80;;;;;;4948661;28;19930;-62
2023/04/11 00:37:00;;;;;;;;;;;12.40;83.30;;;;;;4952021;28;19927;-63
2023/04/11 00:39:29;;;;;;;;;;;12.40;83.50;;;;;;4949620;28;19989;-63
2023/04/11 00:42:03;;;;;;;;;;;12.40;82.60;;;;;;4951494;28;20441;-63
2023/04/11 00:44:30;;;;;;;;;;;12.40;82.20;;;;;;4952789;28;19941;-63
2023/04/11 00:46:58;;;;;;;;;;;12.30;82.00;;;;;;4960889;28;19937;-63
2023/04/11 00:49:25;;;;;;;;;;;12.30;82.30;;;;;;4947842;28;19935;-63
2023/04/11 00:51:52;;;;;;;;;;;12.40;81.80;;;;;;4951679;28;20396;-62
2023/04/11 00:54:20;;;;;;;;;;;12.20;81.20;;;;;;4951600;28;19927;-63
2023/04/11 00:56:47;;;;;;;;;;;12.10;81.40;;;;;;4965429;28;19931;-63
2023/04/11 00:59:13;;;;;;;;;;;12.00;81.60;;;;;;4950103;28;19926;-63
2023/04/11 01:01:42;;;;;;;;;;;12.10;81.10;;;;;;4945825;28;19939;-62
2023/04/11 01:04:08;;;;;;;;;;;12.00;80.90;;;;;;4959398;28;20025;-63
2023/04/11 01:06:36;;;;;;;;;;;11.90;81.20;;;;;;4958701;28;19934;-64
2023/04/11 01:09:04;;;;;;;;;;;12.00;80.80;;;;;;4951672;28;19942;-63
2023/04/11 01:11:32;;;;;;;;;;;11.90;81.20;;;;;;4951313;29;19930;-62
2023/04/11 01:13:59;;;;;;;;;;;11.80;81.40;;;;;;4965781;28;20323;-64
2023/04/11 01:16:26;;;;;;;;;;;11.80;81.60;;;;;;4951938;28;19965;-63
2023/04/11 01:18:53;;;;;;;;;;;11.70;81.90;;;;;;4952205;28;19930;-65
2023/04/11 01:21:20;;;;;;;;;;;11.70;82.00;;;;;;4951515;28;19958;-62
2023/04/11 01:23:51;;;;;;;;;;;11.70;82.20;;;;;;4950984;28;19938;-64
2023/04/11 01:26:18;;;;;;;;;;;11.70;82.30;;;;;;4951611;28;19927;-63
2023/04/11 01:28:55;;;;;;;;;;;11.70;82.60;;;;;;4969332;28;19927;-62
2023/04/11 01:31:26;;;;;;;;;;;11.70;82.80;;;;;;4953193;28;19977;-63
2023/04/11 01:33:52;;;;;;;;;;;11.60;82.70;;;;;;4952507;28;19933;-64
2023/04/11 01:36:19;;;;;;;;;;;11.60;83.00;;;;;;4965367;28;19926;-63
2023/04/11 01:38:48;;;;;;;;;;;11.60;83.20;;;;;;4949821;28;19930;-63
2023/04/11 01:41:16;;;;;;;;;;;11.60;83.40;;;;;;4965440;28;19980;-64
2023/04/11 01:43:43;;;;;;;;;;;11.60;83.10;;;;;;4947182;28;20342;-63
2023/04/11 01:46:11;;;;;;;;;;;11.60;82.90;;;;;;4945863;28;19934;-62
2023/04/11 01:48:38;;;;;;;;;;;11.60;83.40;;;;;;4948068;28;19931;-62
2023/04/11 01:51:06;;;;;;;;;;;11.60;83.30;;;;;;4965480;28;20553;-63
2023/04/11 01:53:32;;;;;;;;;;;11.60;83.40;;;;;;4965800;28;19930;-63
2023/04/11 01:56:01;;;;;;;;;;;11.50;83.60;;;;;;4951650;29;19953;-64
2023/04/11 01:58:27;;;;;;;;;;;11.60;81.00;;;;;;4950073;28;19934;-63
2023/04/11 02:00:54;;;;;;;;;;;11.50;79.80;;;;;;4957689;28;19973;-63
2023/04/11 02:03:21;;;;;;;;;;;11.50;79.40;;;;;;4949908;28;19935;-63
2023/04/11 02:05:48;;;;;;;;;;;11.40;79.80;;;;;;4952687;28;20285;-64
2023/04/11 02:08:14;;;;;;;;;;;11.40;79.00;;;;;;4947030;28;19989;-61
2023/04/11 02:10:42;;;;;;;;;;;11.30;77.50;;;;;;4944204;28;19935;-62
2023/04/11 02:13:10;;;;;;;;;;;11.20;77.40;;;;;;4938487;28;19930;-62
2023/04/11 02:15:36;;;;;;;;;;;11.10;77.30;;;;;;4941200;28;20052;-63
2023/04/11 02:18:03;;;;;;;;;;;11.10;78.20;;;;;;4949792;28;19953;-62
2023/04/11 02:20:30;;;;;;;;;;;11.10;78.70;;;;;;4944189;28;20419;-64
2023/04/11 02:23:02;;;;;;;;;;;11.10;79.60;;;;;;4946864;28;19990;-63
2023/04/11 02:25:29;;;;;;;;;;;11.10;79.70;;;;;;4945433;28;19931;-63
2023/04/11 02:27:58;;;;;;;;;;;11.00;80.40;;;;;;4945486;28;19941;-62
2023/04/11 02:30:26;;;;;;;;;;;11.10;79.90;;;;;;4949531;28;19926;-61
2023/04/11 02:32:53;;;;;;;;;;;11.00;80.10;;;;;;4947132;28;19931;-62
2023/04/11 02:35:20;;;;;;;;;;;11.00;80.10;;;;;;4946261;28;19926;-62
2023/04/11 02:37:46;;;;;;;;;;;10.90;80.60;;;;;;4950905;28;19931;-64
2023/04/11 02:40:13;;;;;;;;;;;10.90;81.10;;;;;;4946053;28;20864;-63
2023/04/11 02:42:41;;;;;;;;;;;10.90;81.70;;;;;;4954755;28;19930;-62
2023/04/11 02:45:09;;;;;;;;;;;10.80;82.00;;;;;;4963878;28;20418;-63
2023/04/11 02:47:37;;;;;;;;;;;10.80;81.90;;;;;;4946433;28;19937;-62
2023/04/11 02:50:07;;;;;;;;;;;10.80;81.90;;;;;;4961389;28;20004;-63
2023/04/11 02:52:41;;;;;;;;;;;10.80;82.10;;;;;;4946822;28;19935;-64
2023/04/11 02:55:23;;;;;;;;;;;10.70;82.40;;;;;;4966011;28;19977;-63
2023/04/11 02:57:51;;;;;;;;;;;10.70;82.20;;;;;;4946180;28;19934;-63
2023/04/11 03:00:20;;;;;;;;;;;10.60;82.50;;;;;;4946992;28;19981;-62
2023/04/11 03:03:12;;;;;;;;;;;10.60;82.50;;;;;;4952433;28;19966;-62
2023/04/11 03:05:43;;;;;;;;;;;10.60;82.70;;;;;;4965095;28;20330;-62
2023/04/11 03:08:12;;;;;;;;;;;10.70;82.20;;;;;;4951110;28;19941;-62
2023/04/11 03:10:55;;;;;;;;;;;10.70;82.50;;;;;;4948949;28;19931;-64
2023/04/11 03:13:24;;;;;;;;;;;10.60;82.60;;;;;;4962009;28;19934;-63
2023/04/11 03:15:51;;;;;;;;;;;10.60;82.60;;;;;;4946054;28;19930;-63
2023/04/11 03:18:21;;;;;;;;;;;10.70;82.50;;;;;;4950719;28;19993;-64
2023/04/11 03:20:48;;;;;;;;;;;10.60;82.90;;;;;;4964918;28;19934;-63
2023/04/11 03:23:15;;;;;;;;;;;10.60;83.10;;;;;;4963825;28;19930;-63
2023/04/11 03:25:43;;;;;;;;;;;10.60;83.40;;;;;;4945551;28;19927;-61
2023/04/11 03:28:10;;;;;;;;;;;10.60;83.00;;;;;;4946655;28;19926;-62
2023/04/11 03:30:39;;;;;;;;;;;10.60;83.10;;;;;;4963527;28;20009;-63
2023/04/11 03:33:06;;;;;;;;;;;10.60;83.00;;;;;;4957621;28;20333;-63
2023/04/11 03:35:34;;;;;;;;;;;10.50;83.30;;;;;;4959693;28;19934;-63
2023/04/11 03:38:01;;;;;;;;;;;10.40;83.80;;;;;;4957804;28;20531;-63
2023/04/11 03:40:28;;;;;;;;;;;10.40;84.00;;;;;;4955188;28;19934;-61
2023/04/11 03:43:04;;;;;;;;;;;10.40;83.90;;;;;;4957421;28;20391;-63
2023/04/11 03:45:32;;;;;;;;;;;10.40;83.80;;;;;;4960663;28;20466;-63
2023/04/11 03:48:01;;;;;;;;;;;10.40;84.00;;;;;;4961850;28;19961;-63
2023/04/11 03:50:42;;;;;;;;;;;10.30;84.30;;;;;;4959633;28;19970;-64
2023/04/11 03:53:09;;;;;;;;;;;10.30;84.50;;;;;;4966750;28;20037;-60
2023/04/11 03:55:37;;;;;;;;;;;10.30;84.60;;;;;;4958354;28;20029;-62
2023/04/11 03:58:05;;;;;;;;;;;10.30;84.50;;;;;;4965200;28;19934;-62
2023/04/11 04:00:33;;;;;;;;;;;10.40;84.30;;;;;;4949598;28;19933;-62
2023/04/11 04:03:05;;;;;;;;;;;10.40;84.10;;;;;;4964659;28;19949;-62
2023/04/11 04:05:32;;;;;;;;;;;10.30;84.10;;;;;;4951616;28;19931;-62
2023/04/11 04:08:01;;;;;;;;;;;10.30;83.90;;;;;;4963873;28;20032;-62
2023/04/11 04:10:41;;;;;;;;;;;10.40;83.50;;;;;;4959057;28;19930;-62
2023/04/11 04:13:09;;;;;;;;;;;10.30;83.80;;;;;;4949214;28;19938;-61
2023/04/11 04:15:41;;;;;;;;;;;10.20;84.00;;;;;;4951086;28;19936;-62
2023/04/11 04:18:09;;;;;;;;;;;10.20;84.00;;;;;;4950928;28;19954;-62
2023/04/11 04:20:43;;;;;;;;;;;10.20;83.90;;;;;;4954261;28;20563;-62
2023/04/11 04:23:12;;;;;;;;;;;10.20;83.80;;;;;;4964477;28;19926;-62
2023/04/11 04:25:50;;;;;;;;;;;10.20;83.70;;;;;;4965315;28;20020;-62
2023/04/11 04:28:21;;;;;;;;;;;10.20;83.80;;;;;;4958565;28;20033;-62
2023/04/11 04:30:52;;;;;;;;;;;10.20;83.80;;;;;;4945491;28;19934;-62
2023/04/11 04:33:19;;;;;;;;;;;10.20;83.80;;;;;;4949907;28;20286;-63
2023/04/11 04:35:50;;;;;;;;;;;10.30;83.80;;;;;;4955459;28;19936;-63
2023/04/11 04:38:18;;;;;;;;;;;10.20;83.90;;;;;;4967056;28;20035;-64
2023/04/11 04:40:48;;;;;;;;;;;10.20;83.90;;;;;;4951395;28;19930;-62
2023/04/11 04:43:21;;;;;;;;;;;10.20;84.10;;;;;;4960441;28;20013;-62
2023/04/11 04:45:56;;;;;;;;;;;10.20;84.20;;;;;;4950568;28;19946;-62
2023/04/11 04:48:28;;;;;;;;;;;10.20;84.30;;;;;;4956927;28;19958;-62
2023/04/11 04:50:55;;;;;;;;;;;10.20;84.10;;;;;;4965982;28;19926;-62
2023/04/11 04:53:23;;;;;;;;;;;10.20;84.40;;;;;;4950820;28;19934;-62
2023/04/11 04:55:55;;;;;;;;;;;10.10;84.40;;;;;;4961996;28;19936;-61
2023/04/11 04:58:22;;;;;;;;;;;10.10;84.10;;;;;;4964040;28;20297;-62
2023/04/11 05:00:54;;;;;;;;;;;10.20;84.20;;;;;;4946620;28;20385;-62
2023/04/11 05:03:23;;;;;;;;;;;10.10;84.30;;;;;;4959358;28;20006;-61
2023/04/11 05:05:51;;;;;;;;;;;10.10;84.20;;;;;;4950973;28;19931;-63
2023/04/11 05:08:20;;;;;;;;;;;10.10;84.30;;;;;;4943303;28;19930;-62
2023/04/11 05:10:49;;;;;;;;;;;10.10;84.40;;;;;;4963595;28;19926;-62
2023/04/11 05:13:16;;;;;;;;;;;10.10;84.20;;;;;;4966155;28;19930;-61
2023/04/11 05:15:46;;;;;;;;;;;10.10;83.90;;;;;;4962310;28;19926;-62
2023/04/11 05:18:13;;;;;;;;;;;10.10;84.20;;;;;;4966179;28;19986;-63
2023/04/11 05:20:40;;;;;;;;;;;10.10;84.20;;;;;;4951078;28;19936;-62
2023/04/11 05:23:10;;;;;;;;;;;10.10;84.10;;;;;;4961887;28;19927;-62
2023/04/11 05:25:37;;;;;;;;;;;10.10;84.30;;;;;;4962924;28;19934;-62
2023/04/11 05:28:07;;;;;;;;;;;10.10;83.90;;;;;;4950667;28;19945;-63
2023/04/11 05:30:34;;;;;;;;;;;10.20;84.00;;;;;;4948463;28;19937;-62
2023/04/11 05:33:00;;;;;;;;;;;10.10;84.30;;;;;;4949129;28;19960;-62
2023/04/11 05:35:27;;;;;;;;;;;10.10;84.40;;;;;;4950024;28;19981;-62
2023/04/11 05:37:57;;;;;;;;;;;10.10;84.40;;;;;;4966241;28;19930;-61
2023/04/11 05:40:24;;;;;;;;;;;10.10;84.40;;;;;;4948490;28;19953;-61
2023/04/11 05:42:50;;;;;;;;;;;10.00;84.50;;;;;;4965062;28;19927;-62
2023/04/11 05:45:20;;;;;;;;;;;10.10;84.20;;;;;;4949412;28;20416;-64
2023/04/11 05:47:46;;;;;;;;;;;10.00;84.40;;;;;;4960109;28;19934;-61
2023/04/11 05:50:14;;;;;;;;;;;10.10;84.30;;;;;;4960781;28;19969;-62
2023/04/11 05:52:40;;;;;;;;;;;10.10;84.40;;;;;;4948737;28;19927;-63
2023/04/11 05:55:07;;;;;;;;;;;10.00;84.60;;;;;;4945499;28;20373;-62
2023/04/11 05:57:34;;;;;;;;;;;10.10;84.60;;;;;;4949320;28;20102;-61
2023/04/11 06:00:05;;;;;;;;;;;10.20;84.00;;;;;;4949374;28;20061;-63
2023/04/11 06:02:41;;;;;;;;;;;10.20;84.30;;;;;;4947952;28;19926;-61
2023/04/11 06:05:09;;;;;;;;;;;10.20;84.20;;;;;;4962668;28;19934;-62
2023/04/11 06:07:36;;;;;;;;;;;10.20;84.00;;;;;;4949792;28;19926;-62
2023/04/11 06:10:03;;;;;;;;;;;10.20;83.90;;;;;;4948819;28;19934;-61
2023/04/11 06:12:29;;;;;;;;;;;10.20;84.50;;;;;;4951368;28;19930;-61
2023/04/11 06:14:56;;;;;;;;;;;10.10;84.50;;;;;;4946893;28;20400;-62
2023/04/11 06:17:23;;;;;;;;;;;10.20;84.30;;;;;;4946889;28;20013;-62
2023/04/11 06:19:51;;;;;;;;;;;10.10;84.50;;;;;;4949015;28;19974;-62
2023/04/11 06:22:18;;;;;;;;;;;10.20;84.20;;;;;;4948061;28;19932;-62
2023/04/11 06:24:45;;;;;;;;;;;10.20;84.50;;;;;;4949512;28;19981;-62
2023/04/11 06:27:12;;;;;;;;;;;10.20;84.40;;;;;;4948106;28;19962;-62
2023/04/11 06:29:39;;;;;;;;;;;10.30;84.50;;;;;;4947635;29;19933;-63
2023/04/11 06:32:06;;;;;;;;;;;10.30;84.30;;;;;;4948361;28;19930;-61
2023/04/11 06:34:33;;;;;;;;;;;10.40;84.20;;;;;;4949283;28;20586;-58
2023/04/11 06:37:01;;;;;;;;;;;10.50;83.80;;;;;;4949328;28;19928;-62
2023/04/11 06:39:28;;;;;;;;;;;10.50;83.60;;;;;;4948726;28;19926;-63
2023/04/11 06:41:55;;;;;;;;;;;10.40;83.80;;;;;;4947484;28;19933;-62
2023/04/11 06:44:31;;;;;;;;;;;10.40;83.80;;;;;;4949179;28;20421;-62
2023/04/11 06:47:06;;;;;;;;;;;10.50;83.70;;;;;;4947212;28;19936;-62
2023/04/11 06:49:32;;;;;;;;;;;10.60;83.60;;;;;;4950512;28;19930;-62
2023/04/11 06:52:02;;;;;;;;;;;10.60;83.50;;;;;;4948967;28;20013;-62
2023/04/11 06:54:29;;;;;;;;;;;10.70;83.50;;;;;;4950902;28;19989;-62
2023/04/11 06:56:56;;;;;;;;;;;10.70;83.00;;;;;;4948408;28;20037;-63
2023/04/11 06:59:23;;;;;;;;;;;10.70;82.90;;;;;;4949501;28;19989;-62
2023/04/11 07:01:50;;;;;;;;;;;10.70;82.90;;;;;;4948827;28;20416;-61
2023/04/11 07:04:16;;;;;;;;;;;10.80;82.70;;;;;;4942922;28;19930;-62
2023/04/11 07:06:43;;;;;;;;;;;10.80;82.50;;;;;;4949957;28;19942;-62
2023/04/11 07:09:12;;;;;;;;;;;10.80;82.50;;;;;;4947042;28;19930;-62
2023/04/11 07:11:39;;;;;;;;;;;10.90;82.40;;;;;;4947006;28;19976;-62
2023/04/11 07:14:06;;;;;;;;;;;10.90;82.10;;;;;;4949732;28;19930;-62
2023/04/11 07:16:33;;;;;;;;;;;11.00;82.00;;;;;;4948904;28;19977;-62
2023/04/11 07:19:01;;;;;;;;;;;11.00;81.70;;;;;;4948945;28;19939;-62
2023/04/11 07:21:30;;;;;;;;;;;11.10;81.70;;;;;;4950006;28;19926;-62
2023/04/11 07:23:59;;;;;;;;;;;11.20;81.70;;;;;;4947620;28;20341;-62
2023/04/11 07:26:30;;;;;;;;;;;11.30;81.30;;;;;;4950804;28;19933;-61
2023/04/11 07:28:57;;;;;;;;;;;11.50;81.10;;;;;;4947417;28;19930;-63
2023/04/11 07:31:24;;;;;;;;;;;11.50;80.60;;;;;;4947143;28;20389;-61
2023/04/11 07:33:51;;;;;;;;;;;11.50;80.00;;;;;;4947027;28;19945;-62
2023/04/11 07:36:17;;;;;;;;;;;11.60;79.60;;;;;;4947912;28;19937;-61
2023/04/11 07:38:44;;;;;;;;;;;11.50;79.20;;;;;;4949491;28;19934;-63
2023/04/11 07:41:11;;;;;;;;;;;11.70;79.20;;;;;;4948199;28;20451;-62
2023/04/11 07:43:39;;;;;;;;;;;11.90;78.80;;;;;;4950007;28;19933;-61
2023/04/11 07:46:06;;;;;;;;;;;12.20;78.30;;;;;;4946318;28;19930;-62
2023/04/11 07:48:33;;;;;;;;;;;12.20;77.60;;;;;;4947381;28;19926;-62
2023/04/11 07:50:59;;;;;;;;;;;12.20;76.80;;;;;;4949263;28;19930;-62
2023/04/11 07:53:26;;;;;;;;;;;12.00;76.60;;;;;;4947584;28;19931;-63
2023/04/11 07:55:53;;;;;;;;;;;11.90;76.50;;;;;;4949813;28;19935;-62
2023/04/11 07:58:21;;;;;;;;;;;11.90;76.60;;;;;;4946496;28;19930;-62
2023/04/11 08:00:49;;;;;;;;;;;11.80;76.60;;;;;;4944160;28;19989;-62
2023/04/11 08:03:16;;;;;;;;;;;11.70;76.50;;;;;;4949477;28;19953;-63
2023/04/11 08:05:43;;;;;;;;;;;11.80;76.50;;;;;;4948002;28;19938;-62
2023/04/11 08:08:09;;;;;;;;;;;11.80;76.00;;;;;;4945971;28;20448;-61
2023/04/11 08:10:36;;;;;;;;;;;11.70;75.20;;;;;;4949148;28;20541;-62
2023/04/11 08:13:03;;;;;;;;;;;11.70;74.70;;;;;;4946920;28;19926;-63
2023/04/11 08:15:30;;;;;;;;;;;11.70;74.50;;;;;;4946342;28;19927;-61
2023/04/11 08:17:58;;;;;;;;;;;11.80;73.60;;;;;;4948413;28;19933;-61
2023/04/11 08:20:25;;;;;;;;;;;11.90;73.70;;;;;;4947119;28;19935;-61
2023/04/11 08:22:52;;;;;;;;;;;12.10;73.00;;;;;;4950528;28;19927;-63
2023/04/11 08:25:21;;;;;;;;;;;12.20;72.70;;;;;;4947815;28;19935;-61
2023/04/11 08:27:48;;;;;;;;;;;12.30;71.60;;;;;;4941232;28;19978;-61
2023/04/11 08:30:15;;;;;;;;;;;12.40;71.60;;;;;;4947921;29;20029;-61
2023/04/11 08:32:42;;;;;;;;;;;12.30;71.30;;;;;;4947155;28;19942;-63
2023/04/11 08:35:11;;;;;;;;;;;12.20;71.10;;;;;;4948045;28;20021;-61
2023/04/11 08:37:37;;;;;;;;;;;12.20;71.30;;;;;;4946598;28;19930;-62
2023/04/11 08:40:06;;;;;;;;;;;12.20;70.80;;;;;;4947937;28;19935;-62
2023/04/11 08:42:32;;;;;;;;;;;12.20;70.60;;;;;;4951453;28;20428;-61
2023/04/11 08:45:00;;;;;;;;;;;12.20;71.00;;;;;;4947988;28;19932;-63
2023/04/11 08:47:27;;;;;;;;;;;12.20;70.90;;;;;;4948161;28;19938;-61
2023/04/11 08:49:55;;;;;;;;;;;12.20;70.40;;;;;;4949373;28;20022;-62
2023/04/11 08:52:24;;;;;;;;;;;12.20;70.20;;;;;;4949778;28;20373;-62
2023/04/11 08:54:53;;;;;;;;;;;12.40;69.60;;;;;;4949980;28;19927;-63
2023/04/11 08:57:27;;;;;;;;;;;12.50;69.40;;;;;;4951838;28;19933;-62
2023/04/11 08:59:54;;;;;;;;;;;12.40;69.20;;;;;;4950895;28;20392;-63
2023/04/11 09:02:21;;;;;;;;;;;12.40;68.80;;;;;;4947983;28;20389;-62
2023/04/11 09:04:48;;;;;;;;;;;12.40;68.80;;;;;;4948462;28;19942;-62
2023/04/11 09:07:15;;;;;;;;;;;12.40;68.80;;;;;;4949040;28;20040;-63
2023/04/11 09:09:43;;;;;;;;;;;12.60;68.40;;;;;;4950987;28;19930;-64
2023/04/11 09:12:10;;;;;;;;;;;12.60;68.10;;;;;;4950788;28;19926;-62
2023/04/11 09:14:37;;;;;;;;;;;12.60;68.30;;;;;;4947346;28;19927;-61
2023/04/11 09:17:05;;;;;;;;;;;12.70;68.40;;;;;;4949771;28;20417;-63
2023/04/11 09:19:32;;;;;;;;;;;12.80;67.50;;;;;;4953087;28;19982;-62
2023/04/11 09:22:00;;;;;;;;;;;12.80;67.30;;;;;;4951799;28;20389;-62
2023/04/11 09:24:27;;;;;;;;;;;12.80;67.10;;;;;;4949459;28;19930;-61
2023/04/11 09:27:07;;;;;;;;;;;12.90;66.70;;;;;;4950944;28;19930;-62
2023/04/11 09:29:37;;;;;;;;;;;12.80;66.30;;;;;;4951535;28;19930;-61
2023/04/11 09:32:05;;;;;;;;;;;12.90;65.90;;;;;;4950185;28;19962;-62
2023/04/11 09:34:32;;;;;;;;;;;12.90;66.20;;;;;;4950108;28;19926;-63
2023/04/11 09:36:59;;;;;;;;;;;12.70;65.40;;;;;;4948144;28;19933;-63
2023/04/11 09:39:28;;;;;;;;;;;12.60;66.30;;;;;;4950761;28;19936;-63
2023/04/11 09:41:55;;;;;;;;;;;12.40;67.00;;;;;;4950893;28;20378;-62
2023/04/11 09:44:36;;;;;;;;;;;12.20;68.60;;;;;;4948903;28;19926;-62
2023/04/11 09:47:02;;;;;;;;;;;12.10;69.40;;;;;;4950862;28;19930;-61
2023/04/11 09:49:30;;;;;;;;;;;11.80;70.10;;;;;;4951744;28;19926;-62
2023/04/11 09:51:57;;;;;;;;;;;11.60;70.90;;;;;;4947954;28;20298;-62
2023/04/11 09:54:25;;;;;;;;;;;11.50;71.70;;;;;;4946833;28;20313;-60
2023/04/11 09:56:52;;;;;;;;;;;11.50;71.50;;;;;;4949071;28;19931;-63
2023/04/11 09:59:20;;;;;;;;;;;11.50;71.40;;;;;;4949667;28;20056;-62
2023/04/11 10:01:48;;;;;;;;;;;11.50;71.80;;;;;;4950041;28;19945;-61
2023/04/11 10:04:15;;;;;;;;;;;11.70;72.10;;;;;;4949926;28;19933;-62
2023/04/11 10:06:47;;;;;;;;;;;12.10;71.80;;;;;;4945738;28;20593;-62
2023/04/11 10:09:15;;;;;;;;;;;12.20;71.80;;;;;;4949541;28;20305;-61
2023/04/11 10:11:43;;;;;;;;;;;12.30;71.50;;;;;;4949496;28;19969;-61
2023/04/11 10:14:30;;;;;;;;;;;12.40;72.00;;;;;;4951541;28;19938;-62
2023/04/11 10:17:17;;;;;;;;;;;12.30;71.80;;;;;;4951859;28;19926;-63
2023/04/11 10:19:46;;;;;;;;;;;12.20;72.10;;;;;;4943516;28;20023;-62
2023/04/11 10:22:41;;;;;;;;;;;12.20;72.80;;;;;;4949246;28;20033;-62
2023/04/11 10:27:59;;;;;;;;;;;12.20;73.40;;;;;;4946497;28;19938;-60
2023/04/11 10:30:41;;;;;;;;;;;12.20;73.50;;;;;;4950432;28;19938;-61
2023/04/11 10:33:11;;;;;;;;;;;12.20;73.30;;;;;;4965613;28;20302;-61
2023/04/11 10:36:00;;;;;;;;;;;12.20;73.60;;;;;;4952567;28;19994;-62
2023/04/11 10:38:48;;;;;;;;;;;12.30;73.30;;;;;;4946417;28;20551;-62
2023/04/11 10:41:15;;;;;;;;;;;12.30;72.00;;;;;;4948746;28;19935;-62
2023/04/11 10:43:42;;;;;;;;;;;12.30;70.00;;;;;;4950526;28;19931;-62
2023/04/11 10:46:18;;;;;;;;;;;12.40;70.10;;;;;;4948210;28;19934;-62
2023/04/11 10:48:57;;;;;;;;;;;12.60;69.50;;;;;;4941128;28;19934;-61
2023/04/11 10:51:26;;;;;;;;;;;12.70;67.30;;;;;;4944710;28;19934;-63
2023/04/11 10:53:58;;;;;;;;;;;12.80;67.30;;;;;;4962054;28;19926;-61
2023/04/11 10:56:45;;;;;;;;;;;13.00;65.40;;;;;;4950424;28;19934;-62
2023/04/11 10:59:27;;;;;;;;;;;13.20;65.90;;;;;;4947290;28;19932;-62
2023/04/11 11:01:54;;;;;;;;;;;13.20;66.30;;;;;;4938779;28;19931;-62
2023/04/11 11:04:30;;;;;;;;;;;13.10;64.70;;;;;;4948510;28;19966;-63
2023/04/11 11:06:57;;;;;;;;;;;12.90;64.10;;;;;;4963263;28;19926;-63
2023/04/11 11:09:35;;;;;;;;;;;12.70;64.40;;;;;;4952526;28;20345;-62
2023/04/11 11:12:08;;;;;;;;;;;12.50;65.00;;;;;;4949099;28;19933;-62
2023/04/11 11:14:35;;;;;;;;;;;12.30;66.90;;;;;;4946615;28;19937;-61
2023/04/11 11:17:02;;;;;;;;;;;11.70;68.70;;;;;;4947189;28;19931;-61
2023/04/11 11:19:29;;;;;;;;;;;11.60;70.10;;;;;;4950589;28;19938;-62
2023/04/11 11:22:03;;;;;;;;;;;11.60;70.90;;;;;;4949040;28;21898;-62
2023/04/11 11:24:31;;;;;;;;;;;11.60;71.10;;;;;;4947619;28;20377;-61
2023/04/11 11:27:05;;;;;;;;;;;11.70;71.20;;;;;;4949324;29;20331;-62
2023/04/11 11:29:33;;;;;;;;;;;11.70;71.70;;;;;;4950556;28;19937;-62
2023/04/11 11:32:02;;;;;;;;;;;11.90;72.70;;;;;;4947840;28;19946;-62
2023/04/11 11:34:30;;;;;;;;;;;12.10;72.70;;;;;;4949428;29;19930;-62
2023/04/11 11:36:57;;;;;;;;;;;12.20;72.90;;;;;;4949339;29;20337;-61
2023/04/11 11:39:24;;;;;;;;;;;12.40;72.80;;;;;;4947172;28;19935;-62
2023/04/11 11:42:03;;;;;;;;;;;12.60;71.10;;;;;;4949670;28;20412;-62
2023/04/11 11:44:31;;;;;;;;;;;12.70;71.40;;;;;;4948200;28;19966;-61
2023/04/11 11:47:00;;;;;;;;;;;12.90;70.90;;;;;;4946212;28;19926;-62
2023/04/11 11:49:27;;;;;;;;;;;13.00;70.70;;;;;;4948103;28;19947;-62
2023/04/11 11:51:54;;;;;;;;;;;13.00;70.50;;;;;;4946976;28;20285;-61
2023/04/11 11:54:21;;;;;;;;;;;13.10;70.40;;;;;;4949037;28;19930;-61
2023/04/11 11:57:01;;;;;;;;;;;13.20;70.20;;;;;;4947344;28;19937;-62
2023/04/11 11:59:27;;;;;;;;;;;13.30;70.00;;;;;;4946807;28;19931;-61
2023/04/11 12:01:54;;;;;;;;;;;13.40;70.00;;;;;;4946709;28;19948;-62
2023/04/11 12:04:21;;;;;;;;;;;13.60;70.00;;;;;;4945910;28;19989;-61
2023/04/11 12:06:48;;;;;;;;;;;13.70;70.00;;;;;;4946071;28;19934;-64
2023/04/11 12:09:15;;;;;;;;;;;14.00;70.20;;;;;;4947206;28;19934;-61
2023/04/11 12:11:44;;;;;;;;;;;14.20;68.30;;;;;;4948890;28;19937;-62
2023/04/11 12:14:22;;;;;;;;;;;14.30;68.00;;;;;;4946555;28;20393;-62
2023/04/11 12:16:49;;;;;;;;;;;14.40;66.80;;;;;;4951850;28;19934;-62
2023/04/11 12:19:15;;;;;;;;;;;14.40;65.40;;;;;;4958690;28;20293;-62
2023/04/11 12:21:42;;;;;;;;;;;14.20;64.10;;;;;;4950384;28;19937;-64
2023/04/11 12:24:09;;;;;;;;;;;14.10;63.30;;;;;;4946254;28;20504;-63
2023/04/11 12:26:36;;;;;;;;;;;13.90;61.20;;;;;;4950722;28;20461;-62
2023/04/11 12:29:06;;;;;;;;;;;13.80;62.30;;;;;;4952565;29;19997;-62
2023/04/11 12:31:34;;;;;;;;;;;13.70;62.60;;;;;;4949266;28;19930;-63
2023/04/11 12:34:01;;;;;;;;;;;13.60;62.40;;;;;;4948204;28;19926;-62
2023/04/11 12:36:27;;;;;;;;;;;13.50;62.70;;;;;;4951201;28;19927;-62
2023/04/11 12:38:54;;;;;;;;;;;13.40;63.10;;;;;;4946695;28;19961;-61
2023/04/11 12:41:21;;;;;;;;;;;13.40;63.00;;;;;;4950065;28;19930;-62
2023/04/11 12:43:47;;;;;;;;;;;13.20;62.50;;;;;;4949987;28;19937;-63
2023/04/11 12:46:16;;;;;;;;;;;13.20;63.30;;;;;;4948373;28;19930;-63
2023/04/11 12:48:44;;;;;;;;;;;13.10;62.60;;;;;;4952525;28;19937;-63
2023/04/11 12:51:11;;;;;;;;;;;13.10;62.80;;;;;;4951054;28;20025;-63
2023/04/11 12:53:37;;;;;;;;;;;13.20;62.50;;;;;;4951414;28;19930;-63
2023/04/11 12:56:05;;;;;;;;;;;13.30;61.90;;;;;;4950331;29;19982;-61
2023/04/11 12:58:31;;;;;;;;;;;13.40;60.20;;;;;;4947246;28;19954;-62
2023/04/11 13:00:58;;;;;;;;;;;13.50;60.40;;;;;;4950205;28;19926;-62
2023/04/11 13:03:25;;;;;;;;;;;13.40;59.70;;;;;;4948705;28;19934;-61
2023/04/11 13:05:54;;;;;;;;;;;13.50;58.50;;;;;;4951638;28;19927;-63
2023/04/11 13:08:20;;;;;;;;;;;13.50;57.00;;;;;;4951171;28;19933;-62
2023/04/11 13:10:47;;;;;;;;;;;13.60;56.80;;;;;;4949833;28;19926;-62
2023/04/11 13:13:14;;;;;;;;;;;13.60;55.80;;;;;;4948910;28;19926;-62
2023/04/11 13:15:41;;;;;;;;;;;13.70;55.10;;;;;;4948599;28;19974;-64
2023/04/11 13:18:08;;;;;;;;;;;13.70;56.10;;;;;;4951556;28;20396;-62
2023/04/11 13:20:34;;;;;;;;;;;13.80;56.30;;;;;;4951607;28;20393;-62
2023/04/11 13:23:02;;;;;;;;;;;13.90;56.10;;;;;;4950560;28;20447;-63
2023/04/11 13:25:32;;;;;;;;;;;13.80;55.90;;;;;;4948291;28;19937;-62
2023/04/11 13:27:59;;;;;;;;;;;13.90;55.60;;;;;;4949735;28;19930;-62
2023/04/11 13:30:25;;;;;;;;;;;13.90;57.20;;;;;;4949592;28;19937;-61
2023/04/11 13:32:52;;;;;;;;;;;14.00;55.90;;;;;;4948324;28;19930;-62
2023/04/11 13:35:19;;;;;;;;;;;14.00;55.40;;;;;;4949437;29;19927;-62
2023/04/11 13:37:47;;;;;;;;;;;14.10;55.20;;;;;;4948651;28;19930;-62
2023/04/11 13:40:16;;;;;;;;;;;14.10;55.50;;;;;;4947764;29;19937;-63
2023/04/11 13:42:42;;;;;;;;;;;14.00;52.60;;;;;;4966490;28;20011;-62
2023/04/11 13:45:09;;;;;;;;;;;13.90;53.20;;;;;;4947997;28;19930;-62
2023/04/11 13:47:36;;;;;;;;;;;13.80;53.30;;;;;;4950581;28;19934;-62
2023/04/11 13:50:03;;;;;;;;;;;13.70;53.50;;;;;;4950797;28;19937;-61
2023/04/11 13:52:30;;;;;;;;;;;13.80;53.40;;;;;;4949989;28;19934;-62
2023/04/11 13:54:57;;;;;;;;;;;13.80;51.40;;;;;;4950115;28;20025;-61
2023/04/11 13:57:27;;;;;;;;;;;13.70;51.90;;;;;;4950186;28;19938;-62
2023/04/11 13:59:54;;;;;;;;;;;13.70;50.20;;;;;;4948231;28;19930;-64
2023/04/11 14:02:20;;;;;;;;;;;13.70;51.30;;;;;;4947786;28;19937;-62
2023/04/11 14:04:48;;;;;;;;;;;13.70;52.10;;;;;;4947997;28;20027;-62
2023/04/11 14:07:15;;;;;;;;;;;13.90;51.20;;;;;;4950284;28;19926;-62
2023/04/11 14:09:42;;;;;;;;;;;13.80;50.50;;;;;;4951696;28;20026;-62
2023/04/11 14:12:09;;;;;;;;;;;13.90;49.40;;;;;;4949357;28;19926;-63
2023/04/11 14:14:37;;;;;;;;;;;13.80;49.10;;;;;;4948893;28;19937;-63
2023/04/11 14:17:04;;;;;;;;;;;13.80;49.00;;;;;;4946276;28;19981;-60
2023/04/11 14:19:31;;;;;;;;;;;13.70;49.80;;;;;;4949654;28;19934;-62
2023/04/11 14:21:57;;;;;;;;;;;13.70;49.40;;;;;;4946220;28;20356;-62
2023/04/11 14:24:25;;;;;;;;;;;13.70;49.80;;;;;;4949302;28;19945;-63
2023/04/11 14:26:52;;;;;;;;;;;13.60;48.70;;;;;;4948768;28;20042;-61
2023/04/11 14:29:19;;;;;;;;;;;13.60;48.30;;;;;;4948748;29;19942;-62